Time;durP1;ratioP1;P1;durP2;ratioP2;P2;SDS_P1;SDS_P2;PMS_P1;PMS_P2;Temp;Humidity;BMP_temperature;BMP_pressure;BME280_temperature;BME280_humidity;BME280_pressure;Samples;Min_cycle;Max_cycle;Signal;HPM_P1;HPM_P2
2023/01/12 00:01:45;;;;;;;20.10;3.00;;;8.60;99.90;;;;;;5110837;27;20217;-82
2023/01/12 00:04:12;;;;;;;17.48;3.55;;;8.60;99.90;;;;;;5115212;27;20616;-82
2023/01/12 00:06:39;;;;;;;17.98;3.03;;;8.60;99.90;;;;;;5112450;27;20196;-85
2023/01/12 00:09:06;;;;;;;22.95;3.70;;;8.70;99.90;;;;;;5114165;27;20671;-82
2023/01/12 00:11:32;;;;;;;24.50;3.63;;;8.70;99.90;;;;;;5111871;27;20267;-81
2023/01/12 00:13:58;;;;;;;25.20;3.63;;;8.70;99.90;;;;;;5114460;27;21258;-84
2023/01/12 00:16:34;;;;;;;18.80;3.03;;;8.70;99.90;;;;;;5111366;27;20189;-83
2023/01/12 00:19:01;;;;;;;21.15;3.80;;;8.70;99.90;;;;;;5112560;27;20180;-81
2023/01/12 00:21:28;;;;;;;23.73;3.53;;;8.70;99.90;;;;;;5111830;27;20221;-81
2023/01/12 00:23:53;;;;;;;29.38;3.78;;;8.70;99.90;;;;;;5111207;27;20800;-82
2023/01/12 00:26:19;;;;;;;26.17;3.60;;;8.70;99.90;;;;;;5109450;27;20279;-81
2023/01/12 00:28:45;;;;;;;19.83;3.67;;;8.70;99.90;;;;;;5074026;27;20192;-82
2023/01/12 00:31:11;;;;;;;22.52;3.50;;;8.80;99.90;;;;;;5078338;27;20279;-84
2023/01/12 00:33:37;;;;;;;22.70;3.63;;;8.80;99.90;;;;;;5110785;27;20252;-83
2023/01/12 00:36:06;;;;;;;24.88;4.15;;;8.80;99.90;;;;;;5109538;27;20688;-81
2023/01/12 00:38:35;;;;;;;26.67;4.18;;;8.80;99.90;;;;;;5110915;27;20189;-84
2023/01/12 00:46:48;;;;;;;27.40;3.97;;;8.90;99.90;;;;;;5112612;27;20185;-82
2023/01/12 00:49:14;;;;;;;23.45;3.90;;;8.90;99.90;;;;;;5096440;28;20248;-85
2023/01/12 00:51:40;;;;;;;31.23;4.10;;;8.90;99.90;;;;;;5092696;28;20195;-81
2023/01/12 00:54:07;;;;;;;30.83;4.28;;;8.90;99.90;;;;;;5113135;28;20579;-83
2023/01/12 00:56:37;;;;;;;29.75;3.75;;;8.90;99.90;;;;;;5107590;28;20189;-85
2023/01/12 00:59:03;;;;;;;26.90;3.70;;;8.90;99.90;;;;;;5110239;27;20181;-83
2023/01/12 01:01:30;;;;;;;33.50;4.82;;;8.90;99.90;;;;;;5112334;28;20230;-85
2023/01/12 01:03:56;;;;;;;31.55;3.92;;;8.90;99.90;;;;;;5115452;28;20189;-83
2023/01/12 01:06:22;;;;;;;21.95;3.33;;;8.90;99.90;;;;;;5109538;28;20212;-83
2023/01/12 01:08:48;;;;;;;25.15;3.67;;;8.90;99.90;;;;;;5112801;28;20185;-83
2023/01/12 01:11:14;;;;;;;25.08;3.92;;;8.90;99.90;;;;;;5077354;28;20196;-83
2023/01/12 01:13:42;;;;;;;29.42;3.72;;;8.90;99.90;;;;;;5093484;28;20628;-84
2023/01/12 01:16:10;;;;;;;24.00;3.72;;;8.90;99.90;;;;;;5095109;28;20188;-81
2023/01/12 01:18:36;;;;;;;19.52;3.65;;;9.00;99.90;;;;;;5114719;27;20173;-83
2023/01/12 01:21:02;;;;;;;22.23;3.83;;;9.00;99.90;;;;;;5115651;27;20240;-85
2023/01/12 01:23:31;;;;;;;18.42;3.50;;;9.00;99.90;;;;;;5116240;27;20189;-84
2023/01/12 01:26:02;;;;;;;24.70;3.65;;;9.00;99.90;;;;;;5118844;27;20764;-83
2023/01/12 01:28:28;;;;;;;21.15;3.70;;;9.00;99.90;;;;;;5115502;27;20192;-81
2023/01/12 01:31:03;;;;;;;22.92;4.05;;;9.00;99.90;;;;;;5104209;27;20233;-81
2023/01/12 01:33:30;;;;;;;27.48;3.75;;;9.00;99.90;;;;;;5119285;27;20181;-83
2023/01/12 01:35:56;;;;;;;23.83;3.60;;;9.00;99.90;;;;;;5114391;27;22698;-83
2023/01/12 01:38:22;;;;;;;18.77;3.42;;;9.00;99.90;;;;;;5114234;27;20184;-80
2023/01/12 01:40:48;;;;;;;18.35;3.67;;;9.00;99.90;;;;;;5100964;27;21183;-83
2023/01/12 01:43:16;;;;;;;26.05;4.30;;;9.00;99.90;;;;;;5116548;27;21940;-80
2023/01/12 01:45:44;;;;;;;26.67;4.50;;;9.00;99.90;;;;;;5116680;27;20179;-82
2023/01/12 01:48:13;;;;;;;18.27;3.53;;;9.00;99.90;;;;;;5115588;27;20213;-84
2023/01/12 01:50:45;;;;;;;22.33;3.83;;;9.00;99.90;;;;;;5115214;27;20189;-83
2023/01/12 01:53:18;;;;;;;33.72;4.30;;;9.00;99.90;;;;;;5113054;27;20228;-82
2023/01/12 01:55:52;;;;;;;27.52;4.00;;;9.00;99.90;;;;;;5115047;27;20192;-84
2023/01/12 01:58:30;;;;;;;29.05;4.30;;;9.00;99.90;;;;;;5115039;27;20169;-81
2023/01/12 02:00:57;;;;;;;26.80;4.03;;;9.00;99.90;;;;;;5115116;27;20185;-83
2023/01/12 02:03:24;;;;;;;28.70;4.10;;;9.00;99.90;;;;;;5115771;27;20234;-81
2023/01/12 02:05:51;;;;;;;27.98;3.53;;;9.00;99.90;;;;;;5114704;27;20206;-85
2023/01/12 02:08:33;;;;;;;23.67;3.55;;;9.00;99.90;;;;;;5104607;27;20288;-82
2023/01/12 02:11:00;;;;;;;25.17;3.33;;;9.00;99.90;;;;;;5123528;27;20205;-82
2023/01/12 02:16:22;;;;;;;30.67;3.85;;;9.00;99.90;;;;;;5113240;27;22640;-84
2023/01/12 02:18:51;;;;;;;22.75;3.75;;;9.00;99.90;;;;;;5114390;27;20198;-82
2023/01/12 02:21:31;;;;;;;34.83;4.03;;;9.10;99.90;;;;;;5110613;27;20229;-84
2023/01/12 02:24:05;;;;;;;29.38;3.85;;;9.10;99.90;;;;;;5116274;27;20181;-81
2023/01/12 02:26:56;;;;;;;27.48;3.97;;;9.10;99.90;;;;;;5096439;27;20191;-82
2023/01/12 02:29:54;;;;;;;18.70;3.13;;;9.00;99.90;;;;;;5116204;27;20268;-84
2023/01/12 02:32:29;;;;;;;30.15;4.15;;;9.10;99.90;;;;;;5105059;27;20850;-82
2023/01/12 02:35:09;;;;;;;24.17;4.32;;;9.10;99.90;;;;;;5102105;27;20214;-80
2023/01/12 02:37:44;;;;;;;28.52;3.97;;;9.10;99.90;;;;;;5097746;27;20359;-81
2023/01/12 02:40:22;;;;;;;33.35;4.63;;;9.10;99.90;;;;;;5115200;27;20252;-81
2023/01/12 02:43:06;;;;;;;27.65;4.18;;;9.10;99.90;;;;;;5100434;27;20276;-81
2023/01/12 02:45:56;;;;;;;31.27;4.40;;;9.20;99.90;;;;;;5112328;27;20184;-84
2023/01/12 02:48:51;;;;;;;32.17;4.82;;;9.20;99.90;;;;;;5087138;27;20193;-80
2023/01/12 02:51:38;;;;;;;22.65;4.18;;;9.20;99.90;;;;;;5115271;27;20906;-81
2023/01/12 02:54:09;;;;;;;23.00;3.60;;;9.10;99.90;;;;;;5131001;27;20718;-81
2023/01/12 02:56:44;;;;;;;27.30;4.32;;;9.20;99.90;;;;;;5111061;27;20207;-81
2023/01/12 02:59:33;;;;;;;27.55;4.03;;;9.20;99.90;;;;;;5115227;27;20180;-83
2023/01/12 03:02:15;;;;;;;32.75;4.35;;;9.20;99.90;;;;;;5113082;27;20307;-83
2023/01/12 03:04:41;;;;;;;22.25;3.78;;;9.20;99.90;;;;;;5115638;27;20332;-84
2023/01/12 03:07:18;;;;;;;28.50;3.72;;;9.20;99.90;;;;;;5095023;27;20189;-86
2023/01/12 03:09:54;;;;;;;22.38;3.83;;;9.20;99.90;;;;;;5113021;27;20217;-82
2023/01/12 03:12:28;;;;;;;23.63;3.70;;;9.20;99.90;;;;;;5099151;27;20180;-85
2023/01/12 03:14:55;;;;;;;26.65;3.90;;;9.20;99.90;;;;;;5113947;27;20177;-85
2023/01/12 03:17:50;;;;;;;21.90;4.10;;;9.20;99.90;;;;;;5111931;27;20605;-81
2023/01/12 03:20:29;;;;;;;25.63;3.92;;;9.20;99.90;;;;;;5092245;27;20219;-85
2023/01/12 03:23:08;;;;;;;21.98;4.00;;;9.20;99.90;;;;;;5112723;27;20704;-82
2023/01/12 03:25:36;;;;;;;36.33;4.55;;;9.20;99.90;;;;;;5118108;27;20189;-83
2023/01/12 03:28:05;;;;;;;25.88;3.95;;;9.20;99.90;;;;;;5110391;27;20246;-82
2023/01/12 03:30:39;;;;;;;24.02;4.28;;;9.20;99.90;;;;;;5119665;27;20188;-81
2023/01/12 03:33:06;;;;;;;29.77;4.55;;;9.20;99.90;;;;;;5111838;27;20170;-82
2023/01/12 03:35:39;;;;;;;32.92;4.65;;;9.20;99.90;;;;;;5083501;27;20212;-82
2023/01/12 03:38:27;;;;;;;28.42;4.75;;;9.30;99.90;;;;;;5113570;27;20217;-84
2023/01/12 03:41:03;;;;;;;22.23;3.88;;;9.20;99.90;;;;;;5095830;28;20176;-81
2023/01/12 03:43:40;;;;;;;21.38;4.35;;;9.20;99.90;;;;;;5112573;27;20282;-81
2023/01/12 03:46:15;;;;;;;23.52;4.22;;;9.30;99.90;;;;;;5110182;27;20258;-82
2023/01/12 03:48:51;;;;;;;17.48;4.13;;;9.30;99.90;;;;;;5112790;27;20168;-82
2023/01/12 03:51:24;;;;;;;26.42;3.75;;;9.30;99.90;;;;;;5113824;27;20176;-85
2023/01/12 03:53:53;;;;;;;22.20;4.07;;;9.30;99.90;;;;;;5095097;27;22039;-82
2023/01/12 03:56:22;;;;;;;23.02;3.85;;;9.30;99.90;;;;;;5113917;27;20184;-82
2023/01/12 03:58:49;;;;;;;19.05;3.83;;;9.30;99.90;;;;;;5112258;27;20845;-81
2023/01/12 04:01:15;;;;;;;19.75;3.95;;;9.30;99.90;;;;;;5111018;27;20232;-84
2023/01/12 04:03:40;;;;;;;20.83;2.97;;;9.30;99.90;;;;;;5099445;27;20551;-84
2023/01/12 04:06:07;;;;;;;22.15;3.75;;;9.30;99.90;;;;;;5111290;27;20276;-81
2023/01/12 04:08:33;;;;;;;21.73;3.17;;;9.30;99.90;;;;;;5097542;27;20276;-83
2023/01/12 04:10:59;;;;;;;19.15;3.50;;;9.30;99.90;;;;;;5097037;27;20180;-86
2023/01/12 04:13:25;;;;;;;25.40;3.70;;;9.30;99.90;;;;;;5084416;27;20181;-81
2023/01/12 04:15:50;;;;;;;22.63;4.00;;;9.40;99.90;;;;;;5112274;27;20192;-86
2023/01/12 04:18:16;;;;;;;19.80;3.67;;;9.40;99.90;;;;;;5097116;27;20196;-81
2023/01/12 04:20:42;;;;;;;23.67;3.50;;;9.40;99.90;;;;;;5097315;27;20569;-81
2023/01/12 04:23:08;;;;;;;25.23;3.80;;;9.40;99.90;;;;;;5094694;27;20652;-83
2023/01/12 04:25:34;;;;;;;16.77;3.33;;;9.50;99.90;;;;;;5096629;27;22618;-84
2023/01/12 04:28:03;;;;;;;18.27;3.42;;;9.50;99.90;;;;;;5112727;27;20346;-82
2023/01/12 04:30:33;;;;;;;19.77;3.50;;;9.50;99.90;;;;;;5113275;27;20246;-86
2023/01/12 04:33:04;;;;;;;23.48;3.75;;;9.40;99.90;;;;;;5113578;27;20715;-82
2023/01/12 04:35:30;;;;;;;19.95;3.17;;;9.40;99.90;;;;;;5133179;27;20210;-82
2023/01/12 04:37:55;;;;;;;16.20;3.08;;;9.50;99.90;;;;;;5114253;27;20178;-83
2023/01/12 04:40:21;;;;;;;20.52;3.40;;;9.50;99.90;;;;;;5096375;28;20185;-82
2023/01/12 04:43:00;;;;;;;10.45;2.60;;;9.50;99.90;;;;;;5092736;28;20262;-82
2023/01/12 04:45:38;;;;;;;13.93;2.92;;;9.50;99.90;;;;;;5109879;27;20173;-81
2023/01/12 04:48:07;;;;;;;7.55;1.80;;;9.40;99.90;;;;;;5114831;27;20191;-81
2023/01/12 04:50:33;;;;;;;11.70;2.55;;;9.40;99.90;;;;;;5112152;28;20173;-83
2023/01/12 04:53:01;;;;;;;14.52;2.25;;;9.40;99.90;;;;;;5096606;28;20307;-81
2023/01/12 04:55:27;;;;;;;8.98;2.10;;;9.40;99.90;;;;;;5109839;28;20176;-82
2023/01/12 04:57:54;;;;;;;8.02;1.80;;;9.40;99.90;;;;;;5113691;27;20195;-81
2023/01/12 05:00:20;;;;;;;8.57;2.00;;;9.40;99.90;;;;;;5110005;28;20223;-80
2023/01/12 05:02:46;;;;;;;7.72;2.25;;;9.40;99.90;;;;;;5084102;28;20228;-81
2023/01/12 05:05:12;;;;;;;10.13;2.00;;;9.40;99.90;;;;;;5112837;28;20294;-87
2023/01/12 05:10:21;;;;;;;11.30;2.35;;;9.40;99.90;;;;;;5095197;28;20188;-84
2023/01/12 05:10:23;;;;;;;6.32;1.85;;;9.40;99.90;;;;;;5095093;28;20537;-81
2023/01/12 05:12:49;;;;;;;6.55;1.92;;;9.40;99.90;;;;;;5109945;28;20201;-84
2023/01/12 05:15:15;;;;;;;6.93;1.58;;;9.40;99.90;;;;;;5109161;28;20180;-83
2023/01/12 05:17:40;;;;;;;5.25;1.75;;;9.40;99.90;;;;;;5106435;28;20188;-83
2023/01/12 05:20:07;;;;;;;5.65;1.75;;;9.30;99.90;;;;;;5111676;28;20271;-82
2023/01/12 05:22:33;;;;;;;8.15;1.83;;;9.30;99.90;;;;;;5110489;27;20209;-85
2023/01/12 05:25:01;;;;;;;5.38;1.60;;;9.30;99.90;;;;;;5094540;28;20271;-82
2023/01/12 05:27:26;;;;;;;6.22;1.85;;;9.30;99.90;;;;;;5109213;28;20588;-85
2023/01/12 05:29:52;;;;;;;3.78;1.20;;;9.30;99.90;;;;;;5110361;28;20289;-81
2023/01/12 05:32:18;;;;;;;4.90;1.30;;;9.30;99.90;;;;;;5107246;28;20192;-82
2023/01/12 05:34:44;;;;;;;5.38;1.80;;;9.30;99.90;;;;;;5109497;28;20192;-83
2023/01/12 05:37:09;;;;;;;5.63;1.75;;;9.30;99.90;;;;;;5111389;28;20325;-82
2023/01/12 05:39:35;;;;;;;3.80;1.52;;;9.30;99.90;;;;;;5112403;27;21302;-82
2023/01/12 05:44:45;;;;;;;5.22;1.70;;;9.30;99.90;;;;;;5112161;28;20239;-81
2023/01/12 05:47:11;;;;;;;4.68;1.70;;;9.20;99.90;;;;;;5092828;28;20189;-82
2023/01/12 05:49:36;;;;;;;3.42;1.70;;;9.20;99.90;;;;;;5110612;28;20189;-82
2023/01/12 05:52:02;;;;;;;3.33;1.77;;;9.20;99.90;;;;;;5111337;28;20681;-85
2023/01/12 05:54:28;;;;;;;3.60;1.70;;;9.20;99.90;;;;;;5108513;28;20206;-84
2023/01/12 05:56:54;;;;;;;11.57;1.98;;;9.20;99.90;;;;;;5112505;28;20180;-81
2023/01/12 05:59:20;;;;;;;5.47;1.58;;;9.20;99.90;;;;;;5112111;28;20196;-85
2023/01/12 06:01:45;;;;;;;3.60;1.58;;;9.20;99.90;;;;;;5099376;28;20231;-82
2023/01/12 06:04:11;;;;;;;3.67;1.50;;;9.20;99.90;;;;;;5118917;27;20184;-82
2023/01/12 06:06:37;;;;;;;3.83;1.35;;;9.20;99.90;;;;;;5118179;27;20185;-83
2023/01/12 06:09:03;;;;;;;6.40;1.70;;;9.20;99.90;;;;;;5117561;27;20184;-81
2023/01/12 06:14:13;;;;;;;5.53;1.50;;;9.20;99.90;;;;;;5117938;27;20317;-90
2023/01/12 06:16:41;;;;;;;3.63;1.30;;;9.20;99.90;;;;;;5139223;27;20199;-81
2023/01/12 06:19:07;;;;;;;3.10;1.45;;;9.20;99.90;;;;;;5099173;27;20184;-84
2023/01/12 06:21:33;;;;;;;2.53;1.35;;;9.20;99.90;;;;;;5104519;27;20241;-82
2023/01/12 06:23:59;;;;;;;3.95;1.50;;;9.20;99.90;;;;;;5114369;27;20231;-82
2023/01/12 06:26:25;;;;;;;3.58;1.55;;;9.20;99.90;;;;;;5114059;27;20177;-82
2023/01/12 06:28:51;;;;;;;1.83;1.00;;;9.20;99.90;;;;;;5115951;27;20631;-83
2023/01/12 06:31:17;;;;;;;1.25;0.82;;;9.30;99.90;;;;;;5116429;27;20200;-81
2023/01/12 06:33:43;;;;;;;1.48;0.90;;;9.20;99.90;;;;;;5113615;27;20176;-81
2023/01/12 06:36:09;;;;;;;1.92;0.90;;;9.30;99.90;;;;;;5111168;27;20235;-83
2023/01/12 06:38:38;;;;;;;1.27;0.93;;;9.30;99.90;;;;;;5112914;27;20587;-81
2023/01/12 06:41:06;;;;;;;2.47;1.02;;;9.30;99.90;;;;;;5109383;27;20264;-81
2023/01/12 06:43:32;;;;;;;1.70;0.93;;;9.30;99.90;;;;;;5100122;27;20740;-86
2023/01/12 06:45:58;;;;;;;2.20;0.77;;;9.40;99.90;;;;;;5111951;27;20181;-84
2023/01/12 06:48:27;;;;;;;2.90;1.00;;;9.40;99.90;;;;;;5118031;27;20185;-83
2023/01/12 06:51:04;;;;;;;1.10;0.75;;;9.40;99.90;;;;;;5084681;27;20179;-82
2023/01/12 06:53:29;;;;;;;2.42;1.85;;;9.40;99.90;;;;;;5116818;27;20181;-87
2023/01/12 06:55:55;;;;;;;0.88;0.80;;;9.50;99.90;;;;;;5112137;27;20189;-81
2023/01/12 06:58:21;;;;;;;1.80;0.85;;;9.50;99.90;;;;;;5103690;27;20189;-84
2023/01/12 07:00:47;;;;;;;4.72;1.30;;;9.50;99.90;;;;;;5098348;27;20198;-81
2023/01/12 07:03:17;;;;;;;3.47;1.20;;;9.60;99.90;;;;;;5103775;27;20207;-81
2023/01/12 07:05:43;;;;;;;4.80;1.23;;;9.60;99.90;;;;;;5116604;27;20169;-81
2023/01/12 07:08:10;;;;;;;3.95;1.50;;;9.60;99.90;;;;;;5104239;27;20192;-84
2023/01/12 07:10:36;;;;;;;4.50;1.38;;;9.70;99.90;;;;;;5115145;27;20185;-84
2023/01/12 07:13:02;;;;;;;4.72;2.10;;;9.70;99.90;;;;;;5122836;27;20432;-81
2023/01/12 07:15:28;;;;;;;4.18;1.95;;;9.80;99.90;;;;;;5111703;27;20292;-81
2023/01/12 07:17:55;;;;;;;5.47;2.47;;;9.80;99.90;;;;;;5112413;27;20192;-85
2023/01/12 07:20:22;;;;;;;5.05;2.30;;;9.80;99.90;;;;;;5113611;27;20181;-84
2023/01/12 07:22:47;;;;;;;6.18;2.50;;;9.90;99.90;;;;;;5115164;27;20217;-81
2023/01/12 07:25:13;;;;;;;6.30;2.20;;;9.90;99.90;;;;;;5115906;27;20825;-80
2023/01/12 07:27:46;;;;;;;5.68;2.22;;;10.00;99.90;;;;;;5108778;27;20751;-82
2023/01/12 07:30:12;;;;;;;9.10;2.38;;;10.00;99.90;;;;;;5107062;27;20181;-81
2023/01/12 07:32:38;;;;;;;5.82;2.20;;;10.10;99.90;;;;;;5116192;27;20690;-82
2023/01/12 07:35:04;;;;;;;10.95;2.42;;;10.10;99.90;;;;;;5094392;27;20189;-81
2023/01/12 07:37:30;;;;;;;11.23;2.50;;;10.10;99.90;;;;;;5096287;27;21172;-83
2023/01/12 07:39:56;;;;;;;10.55;2.75;;;10.20;99.90;;;;;;5091934;27;20184;-80
2023/01/12 07:42:24;;;;;;;13.63;3.20;;;10.20;99.90;;;;;;5109915;27;20204;-82
2023/01/12 07:44:51;;;;;;;11.38;2.38;;;10.30;99.90;;;;;;5110661;27;20550;-85
2023/01/12 07:47:17;;;;;;;14.70;2.95;;;10.30;99.90;;;;;;5112483;27;20667;-83
2023/01/12 07:49:43;;;;;;;16.75;3.00;;;10.40;99.90;;;;;;5097161;27;20192;-80
2023/01/12 07:52:11;;;;;;;17.73;2.88;;;10.40;99.90;;;;;;5110056;27;20192;-82
2023/01/12 07:54:37;;;;;;;13.40;2.95;;;10.40;99.90;;;;;;5110344;27;20172;-82
2023/01/12 07:57:03;;;;;;;17.30;3.05;;;10.50;99.90;;;;;;5113134;27;20176;-83
2023/01/12 07:59:29;;;;;;;16.70;3.55;;;10.50;99.90;;;;;;5109993;27;20269;-84
2023/01/12 08:01:55;;;;;;;20.38;3.80;;;10.50;99.90;;;;;;5107932;27;20207;-85
2023/01/12 08:04:21;;;;;;;23.23;3.70;;;10.50;99.90;;;;;;5110660;27;20189;-83
2023/01/12 08:06:47;;;;;;;17.27;3.35;;;10.60;99.90;;;;;;5106480;27;20189;-81
2023/01/12 08:09:13;;;;;;;18.13;3.70;;;10.60;99.90;;;;;;5096097;27;20550;-83
2023/01/12 08:11:39;;;;;;;18.52;3.63;;;10.70;99.90;;;;;;5110075;27;20291;-80
2023/01/12 08:14:05;;;;;;;22.48;3.97;;;10.70;99.90;;;;;;5109335;27;20296;-80
2023/01/12 08:16:38;;;;;;;17.50;3.15;;;10.70;99.90;;;;;;5094996;27;20653;-82
2023/01/12 08:19:07;;;;;;;13.85;3.03;;;10.80;99.90;;;;;;5112665;27;20168;-81
2023/01/12 08:21:43;;;;;;;17.70;3.08;;;10.90;99.90;;;;;;5107312;27;20247;-89
2023/01/12 08:24:15;;;;;;;24.92;3.42;;;10.90;99.90;;;;;;5095512;27;20637;-81
2023/01/12 08:26:44;;;;;;;16.60;2.80;;;10.90;99.90;;;;;;5112343;27;20289;-82
2023/01/12 08:29:16;;;;;;;18.83;3.22;;;10.90;99.90;;;;;;5130038;27;20603;-80
2023/01/12 08:31:42;;;;;;;22.42;3.28;;;11.00;99.90;;;;;;5099880;28;20180;-81
2023/01/12 08:34:09;;;;;;;19.17;3.10;;;11.00;99.90;;;;;;5112128;27;20237;-82
2023/01/12 08:36:38;;;;;;;19.48;2.88;;;11.00;99.90;;;;;;5091374;28;20185;-85
2023/01/12 08:39:04;;;;;;;16.48;2.60;;;11.10;99.90;;;;;;5110941;27;20180;-79
2023/01/12 08:41:33;;;;;;;16.10;2.88;;;11.10;99.90;;;;;;5095201;28;20258;-84
2023/01/12 08:44:06;;;;;;;17.70;3.10;;;11.10;99.90;;;;;;5110254;27;20756;-82
2023/01/12 08:46:45;;;;;;;21.95;3.03;;;11.10;99.90;;;;;;5107152;27;20228;-80
2023/01/12 08:49:12;;;;;;;18.48;3.00;;;11.20;99.90;;;;;;5113973;27;20218;-82
2023/01/12 08:51:39;;;;;;;19.83;3.13;;;11.20;99.90;;;;;;5097025;28;20216;-83
2023/01/12 08:54:10;;;;;;;17.42;3.35;;;11.20;99.90;;;;;;5111485;28;20230;-88
2023/01/12 08:56:52;;;;;;;;;;;;;;;;;;;;;
2023/01/12 09:00:36;;;;;;;14.32;2.40;;;11.30;99.90;;;;;;5125712;28;20640;-93
2023/01/12 09:03:51;;;;;;;15.68;2.67;;;11.30;99.90;;;;;;5125951;28;20256;-92
2023/01/12 09:06:39;;;;;;;19.95;2.55;;;11.30;99.90;;;;;;5111192;28;20184;-92
2023/01/12 09:09:19;;;;;;;18.30;2.63;;;11.30;99.90;;;;;;5112237;28;20304;-91
2023/01/12 09:12:06;;;;;;;13.20;2.72;;;11.40;99.90;;;;;;5123995;28;20200;-93
2023/01/12 09:14:40;;;;;;;17.60;3.25;;;11.40;99.90;;;;;;5105754;28;20183;-89
2023/01/12 09:17:06;;;;;;;27.40;3.53;;;11.40;99.90;;;;;;5106307;28;20180;-85
2023/01/12 09:19:32;;;;;;;17.17;2.90;;;11.40;99.90;;;;;;5089861;28;20181;-86
2023/01/12 09:21:58;;;;;;;14.63;2.67;;;11.30;99.90;;;;;;5108660;28;20573;-86
2023/01/12 09:24:24;;;;;;;20.65;3.72;;;11.40;99.90;;;;;;5105271;28;20325;-84
2023/01/12 09:26:49;;;;;;;19.70;3.20;;;11.40;99.90;;;;;;5120813;27;20241;-84
2023/01/12 09:29:15;;;;;;;17.38;3.00;;;11.40;99.90;;;;;;5103317;28;20181;-85
2023/01/12 09:31:43;;;;;;;13.70;2.63;;;11.40;99.90;;;;;;5117663;27;20241;-86
2023/01/12 09:34:09;;;;;;;13.75;2.15;;;11.40;99.90;;;;;;5116470;28;20210;-85
2023/01/12 09:36:38;;;;;;;19.90;2.58;;;11.40;99.90;;;;;;5102863;28;20334;-84
2023/01/12 09:39:04;;;;;;;13.10;2.50;;;11.40;99.90;;;;;;5114687;27;20620;-87
2023/01/12 09:47:29;;;;;;;20.67;3.08;;;11.50;99.90;;;;;;5118869;27;20283;-87
2023/01/12 09:49:57;;;;;;;17.88;3.70;;;11.50;99.90;;;;;;5119957;27;20191;-88
2023/01/12 09:52:38;;;;;;;17.13;2.83;;;11.50;99.90;;;;;;5122818;27;20185;-85
2023/01/12 09:55:08;;;;;;;14.95;2.90;;;11.40;99.90;;;;;;5119294;27;20181;-84
2023/01/12 09:57:53;;;;;;;18.00;3.05;;;11.50;99.90;;;;;;5119788;27;20226;-85
2023/01/12 10:00:20;;;;;;;16.17;2.60;;;11.60;99.90;;;;;;5118313;27;20192;-84
2023/01/12 10:02:59;;;;;;;15.70;2.90;;;11.60;99.90;;;;;;5117294;27;20287;-83
2023/01/12 10:05:59;;;;;;;20.60;3.17;;;11.70;99.90;;;;;;5121728;27;20642;-85
2023/01/12 10:08:38;;;;;;;24.25;3.08;;;11.70;99.90;;;;;;5060737;27;20303;-89
2023/01/12 10:11:32;;;;;;;15.25;2.67;;;11.70;99.90;;;;;;5116890;27;20225;-87
2023/01/12 10:14:39;;;;;;;19.05;3.35;;;11.70;99.90;;;;;;5111368;27;20184;-94
2023/01/12 10:17:43;;;;;;;18.02;3.53;;;11.60;99.90;;;;;;5107957;27;20703;-91
2023/01/12 10:20:32;;;;;;;17.33;2.95;;;11.60;99.90;;;;;;5107751;27;22020;-86
2023/01/12 10:23:15;;;;;;;20.67;3.00;;;11.60;99.90;;;;;;5111226;27;20217;-84
2023/01/12 10:25:43;;;;;;;18.23;3.25;;;11.60;99.90;;;;;;5115665;27;20260;-81
2023/01/12 10:28:14;;;;;;;17.35;2.85;;;11.60;99.90;;;;;;5110100;27;20192;-81
2023/01/12 10:30:41;;;;;;;13.63;2.50;;;11.70;99.90;;;;;;5115528;27;20681;-80
2023/01/12 10:33:18;;;;;;;13.30;2.70;;;11.70;99.90;;;;;;5094744;27;20176;-82
2023/01/12 10:35:52;;;;;;;19.98;3.05;;;11.70;99.90;;;;;;5118132;27;20181;-81
2023/01/12 10:38:33;;;;;;;22.10;2.90;;;11.70;99.90;;;;;;5109816;27;20193;-81
2023/01/12 10:41:16;;;;;;;12.45;2.58;;;11.70;99.90;;;;;;5130715;27;20188;-80
2023/01/12 10:44:04;;;;;;;14.57;3.10;;;11.70;99.90;;;;;;5115673;27;20288;-80
2023/01/12 10:46:34;;;;;;;12.35;2.40;;;11.70;99.90;;;;;;5099985;27;20358;-82
2023/01/12 10:49:26;;;;;;;17.38;3.33;;;11.80;99.90;;;;;;5100848;27;20177;-86
2023/01/12 10:52:07;;;;;;;20.65;3.08;;;11.70;99.90;;;;;;5109591;27;20253;-85
2023/01/12 10:54:36;;;;;;;12.70;2.50;;;11.80;99.90;;;;;;5113427;27;20367;-82
2023/01/12 10:57:04;;;;;;;16.63;2.95;;;11.80;99.90;;;;;;5112035;27;20284;-81
2023/01/12 10:59:36;;;;;;;22.38;3.33;;;11.80;99.90;;;;;;5112423;27;20204;-80
2023/01/12 11:02:10;;;;;;;14.45;2.50;;;11.80;99.90;;;;;;5111360;27;20234;-79
2023/01/12 11:04:47;;;;;;;16.58;3.05;;;11.80;99.90;;;;;;5116772;27;20180;-80
2023/01/12 11:07:24;;;;;;;21.95;2.63;;;11.80;99.90;;;;;;5113188;27;20176;-81
2023/01/12 11:09:50;;;;;;;15.85;2.50;;;11.80;99.90;;;;;;5111668;27;20200;-80
2023/01/12 11:12:39;;;;;;;12.30;2.60;;;11.80;99.90;;;;;;5114653;27;20177;-79
2023/01/12 11:15:11;;;;;;;22.38;2.72;;;11.80;99.90;;;;;;5117347;27;20204;-81
2023/01/12 11:17:46;;;;;;;13.60;2.38;;;11.80;99.90;;;;;;5134334;27;20192;-81
2023/01/12 11:20:27;;;;;;;16.85;2.80;;;11.80;99.90;;;;;;5129369;27;20180;-81
2023/01/12 11:22:59;;;;;;;20.63;2.80;;;11.80;99.90;;;;;;5114972;27;20284;-82
2023/01/12 11:25:26;;;;;;;23.50;3.17;;;11.80;99.90;;;;;;5115100;27;20165;-80
2023/01/12 11:27:55;;;;;;;19.02;2.95;;;11.80;99.90;;;;;;5114472;27;20208;-83
2023/01/12 11:30:28;;;;;;;20.20;3.58;;;11.90;99.90;;;;;;5114887;27;20268;-83
2023/01/12 11:33:07;;;;;;;19.10;3.20;;;11.90;99.90;;;;;;5117589;27;20184;-81
2023/01/12 11:35:58;;;;;;;19.45;2.97;;;11.90;99.90;;;;;;5116418;27;20204;-81
2023/01/12 11:38:34;;;;;;;18.17;3.13;;;12.00;99.90;;;;;;5113632;27;20185;-81
2023/01/12 11:41:02;;;;;;;17.38;3.47;;;12.00;99.90;;;;;;5110193;27;20205;-81
2023/01/12 11:43:54;;;;;;;20.50;3.58;;;12.10;99.90;;;;;;5090672;27;20874;-79
2023/01/12 11:46:22;;;;;;;16.58;3.58;;;12.10;99.90;;;;;;5109871;27;20703;-79
2023/01/12 11:49:00;;;;;;;15.60;3.08;;;12.10;99.90;;;;;;5107830;27;20185;-81
2023/01/12 11:51:26;;;;;;;22.60;4.25;;;12.10;99.90;;;;;;5111686;27;20181;-79
2023/01/12 11:53:52;;;;;;;20.10;3.28;;;12.20;99.90;;;;;;5110163;27;20204;-82
2023/01/12 11:56:42;;;;;;;18.05;3.20;;;12.20;99.90;;;;;;5111484;27;20208;-86
2023/01/12 11:59:25;;;;;;;15.10;2.90;;;12.30;99.90;;;;;;5113196;27;20194;-84
2023/01/12 12:02:00;;;;;;;20.60;3.25;;;12.30;99.90;;;;;;5112678;27;20755;-83
2023/01/12 12:04:45;;;;;;;19.40;2.80;;;12.30;99.90;;;;;;5115579;27;20176;-84
2023/01/12 12:07:22;;;;;;;17.40;3.00;;;12.40;99.90;;;;;;5111639;27;20188;-86
2023/01/12 12:10:03;;;;;;;17.70;2.90;;;12.50;99.90;;;;;;5101653;27;20600;-82
2023/01/12 12:13:04;;;;;;;20.67;3.67;;;12.50;99.90;;;;;;5115475;27;20180;-83
2023/01/12 12:16:09;;;;;;;14.10;2.75;;;12.60;99.90;;;;;;5113404;27;20191;-80
2023/01/12 12:18:53;;;;;;;17.17;2.85;;;12.60;99.90;;;;;;5111191;27;20188;-81
2023/01/12 12:21:22;;;;;;;22.67;3.03;;;12.60;99.90;;;;;;5109165;27;20207;-81
2023/01/12 12:23:51;;;;;;;12.95;2.92;;;12.60;99.90;;;;;;5110822;27;20200;-82
2023/01/12 12:26:33;;;;;;;15.57;2.70;;;12.60;99.90;;;;;;5111530;27;20188;-84
2023/01/12 12:29:20;;;;;;;11.82;2.65;;;12.60;99.90;;;;;;5111053;27;20747;-83
2023/01/12 12:32:04;;;;;;;14.00;2.50;;;12.60;99.90;;;;;;5111566;27;20181;-79
2023/01/12 12:34:55;;;;;;;17.40;3.00;;;12.60;99.90;;;;;;5112854;27;20184;-80
2023/01/12 12:37:39;;;;;;;14.73;2.60;;;12.50;99.90;;;;;;5115701;27;20549;-79
2023/01/12 12:46:26;;;;;;;15.38;2.42;;;12.50;99.90;;;;;;5112100;27;20197;-82
2023/01/12 12:49:07;;;;;;;12.25;1.92;;;12.40;99.90;;;;;;5111750;27;20630;-83
2023/01/12 12:51:35;;;;;;;14.50;2.28;;;12.30;99.90;;;;;;5109321;27;20184;-81
2023/01/12 12:54:05;;;;;;;12.75;2.90;;;12.30;99.90;;;;;;5112210;27;20244;-82
2023/01/12 12:56:34;;;;;;;15.05;2.92;;;12.20;99.90;;;;;;5106971;28;20223;-79
2023/01/12 12:59:02;;;;;;;16.58;2.90;;;12.20;99.90;;;;;;5109386;27;20180;-81
2023/01/12 13:01:28;;;;;;;22.08;2.88;;;12.20;99.90;;;;;;5111069;28;20181;-78
2023/01/12 13:03:59;;;;;;;14.40;3.20;;;12.20;99.90;;;;;;5111513;28;20200;-80
2023/01/12 13:06:27;;;;;;;19.75;3.55;;;12.20;99.90;;;;;;5109802;28;20197;-81
2023/01/12 13:08:58;;;;;;;17.30;3.30;;;12.20;99.90;;;;;;5116901;27;20173;-85
2023/01/12 13:11:57;;;;;;;18.55;3.55;;;12.20;99.90;;;;;;5115982;27;21125;-86
2023/01/12 13:14:30;;;;;;;19.65;2.97;;;12.20;99.90;;;;;;5056298;27;20272;-83
2023/01/12 13:17:17;;;;;;;17.70;3.50;;;12.20;99.90;;;;;;5117113;27;20755;-86
2023/01/12 13:19:49;;;;;;;29.52;4.18;;;12.20;99.90;;;;;;5115649;27;20177;-82
2023/01/12 13:22:28;;;;;;;23.27;3.83;;;12.20;99.90;;;;;;5116980;27;20216;-85
2023/01/12 13:24:55;;;;;;;23.05;3.53;;;12.20;99.90;;;;;;5101394;27;20188;-82
2023/01/12 13:27:54;;;;;;;22.48;3.60;;;12.20;99.90;;;;;;5114013;27;20177;-79
2023/01/12 13:30:28;;;;;;;25.10;3.63;;;12.20;99.90;;;;;;5090548;27;20199;-80
2023/01/12 13:33:00;;;;;;;24.60;3.85;;;12.20;99.90;;;;;;5112913;27;20187;-82
2023/01/12 13:35:51;;;;;;;16.30;3.10;;;12.20;99.90;;;;;;5115562;27;20248;-81
2023/01/12 13:38:42;;;;;;;24.40;3.13;;;12.20;99.90;;;;;;5109724;27;20740;-81